createdAt,value
2022-10-22T00:01:02.662Z,17.37
2022-10-22T00:03:29.332Z,15.63
2022-10-22T00:05:56.064Z,17.20
2022-10-22T00:08:22.736Z,17.27
2022-10-22T00:10:49.464Z,16.60
2022-10-22T00:13:16.712Z,17.57
2022-10-22T00:15:43.309Z,16.60
2022-10-22T00:18:09.897Z,15.93
2022-10-22T00:20:36.869Z,16.67
2022-10-22T00:23:03.989Z,16.97
2022-10-22T00:25:31.088Z,16.20
2022-10-22T00:27:57.750Z,15.57
2022-10-22T00:30:24.478Z,15.57
2022-10-22T00:32:51.078Z,16.13
2022-10-22T00:35:17.814Z,15.60
2022-10-22T00:37:44.449Z,16.00
2022-10-22T00:40:11.843Z,18.33
2022-10-22T00:42:38.957Z,17.57
2022-10-22T00:45:12.081Z,17.00
2022-10-22T00:47:43.068Z,15.63
2022-10-22T00:50:14.222Z,17.70
2022-10-22T00:52:41.381Z,18.03
2022-10-22T00:55:09.465Z,17.53
2022-10-22T00:57:36.623Z,17.20
2022-10-22T01:00:05.396Z,17.53
2022-10-22T01:02:32.388Z,17.40
2022-10-22T01:04:59.038Z,17.40
2022-10-22T01:07:25.956Z,18.33
2022-10-22T01:10:20.508Z,18.37
2022-10-22T01:13:26.425Z,16.80
2022-10-22T01:16:07.400Z,18.40
2022-10-22T01:18:47.692Z,18.30
2022-10-22T01:21:23.140Z,19.43
2022-10-22T01:24:20.318Z,18.40
2022-10-22T01:27:20.470Z,18.43
2022-10-22T01:30:09.888Z,17.87
2022-10-22T01:32:51.292Z,18.47
2022-10-22T01:35:28.703Z,19.50
2022-10-22T01:38:02.810Z,17.43
2022-10-22T01:40:30.421Z,15.83
2022-10-22T01:43:02.052Z,17.60
2022-10-22T01:45:42.537Z,18.03
2022-10-22T01:48:37.347Z,16.77
2022-10-22T01:51:26.196Z,16.93
2022-10-22T01:54:02.205Z,18.40
2022-10-22T01:57:05.319Z,16.23
2022-10-22T01:59:43.275Z,17.67
2022-10-22T02:02:32.748Z,17.00
2022-10-22T02:05:23.628Z,17.63
2022-10-22T02:07:59.419Z,18.10
2022-10-22T02:10:27.266Z,17.47
2022-10-22T02:12:55.853Z,18.80
2022-10-22T02:15:25.897Z,15.63
2022-10-22T02:17:55.239Z,18.57
2022-10-22T02:20:31.361Z,18.57
2022-10-22T02:22:59.607Z,17.33
2022-10-22T02:25:34.805Z,17.60
2022-10-22T02:28:16.872Z,18.90
2022-10-22T02:30:48.836Z,17.87
2022-10-22T02:33:27.199Z,16.70
2022-10-22T02:35:54.770Z,16.10
2022-10-22T02:38:23.606Z,17.10
2022-10-22T02:40:50.495Z,17.27
2022-10-22T02:43:18.894Z,17.73
2022-10-22T02:45:46.410Z,15.40
2022-10-22T02:48:13.207Z,17.30
2022-10-22T02:50:39.827Z,16.10
2022-10-22T02:53:06.482Z,18.03
2022-10-22T02:55:33.258Z,15.80
2022-10-22T02:57:59.928Z,15.00
2022-10-22T03:00:26.692Z,15.60
2022-10-22T03:02:53.441Z,15.77
2022-10-22T03:05:20.211Z,16.17
2022-10-22T03:07:46.893Z,14.63
2022-10-22T03:10:13.582Z,14.50
2022-10-22T03:12:40.263Z,15.40
2022-10-22T03:15:07.267Z,14.57
2022-10-22T03:17:33.872Z,16.93
2022-10-22T03:20:00.557Z,14.27
2022-10-22T03:22:32.488Z,15.73
2022-10-22T03:25:02.926Z,13.60
2022-10-22T03:27:30.002Z,15.40
2022-10-22T03:29:57.970Z,14.67
2022-10-22T03:32:24.600Z,17.07
2022-10-22T03:34:51.331Z,16.27
2022-10-22T03:37:18.180Z,16.70
2022-10-22T03:39:45.398Z,15.67
2022-10-22T03:42:13.493Z,16.57
2022-10-22T03:44:40.744Z,15.77
2022-10-22T03:47:07.365Z,15.13
2022-10-22T03:49:34.044Z,16.40
2022-10-22T03:52:12.506Z,17.50
2022-10-22T03:57:11.597Z,14.33
2022-10-22T03:59:43.337Z,13.13
2022-10-22T04:02:10.959Z,14.83
2022-10-22T04:04:38.078Z,14.17
2022-10-22T04:07:06.714Z,15.33
2022-10-22T04:09:34.362Z,14.10
2022-10-22T04:12:01.150Z,13.97
2022-10-22T04:14:27.829Z,13.00
2022-10-22T04:16:54.637Z,13.10
2022-10-22T04:19:21.289Z,13.67
2022-10-22T04:21:47.886Z,14.57
2022-10-22T04:24:14.795Z,14.00
2022-10-22T04:26:41.429Z,14.13
2022-10-22T04:29:11.848Z,13.67
2022-10-22T04:31:41.791Z,14.13
2022-10-22T04:34:08.615Z,13.97
2022-10-22T04:36:35.288Z,14.20
2022-10-22T04:39:03.047Z,15.97
2022-10-22T04:41:32.645Z,15.33
2022-10-22T04:43:59.680Z,15.00
2022-10-22T04:46:30.495Z,15.00
2022-10-22T04:48:57.693Z,14.50
2022-10-22T04:51:26.485Z,16.07
2022-10-22T04:53:54.026Z,16.17
2022-10-22T04:56:24.854Z,14.33
2022-10-22T04:58:55.953Z,15.30
2022-10-22T05:01:28.934Z,14.17
2022-10-22T05:03:57.906Z,14.93
2022-10-22T05:06:25.802Z,15.77
2022-10-22T05:08:57.748Z,15.60
2022-10-22T05:11:28.276Z,14.63
2022-10-22T05:13:58.898Z,14.80
2022-10-22T05:16:28.364Z,14.70
2022-10-22T05:18:55.132Z,16.13
2022-10-22T05:21:22.230Z,14.17
2022-10-22T05:23:50.409Z,13.50
2022-10-22T05:26:21.245Z,14.20
2022-10-22T05:28:49.486Z,14.70
2022-10-22T05:31:17.131Z,14.77
2022-10-22T05:33:44.908Z,15.07
2022-10-22T05:36:18.133Z,15.00
2022-10-22T05:38:45.101Z,14.33
2022-10-22T05:41:14.429Z,18.27
2022-10-22T05:43:41.235Z,14.73
2022-10-22T05:46:13.469Z,14.33
2022-10-22T05:48:40.603Z,17.80
2022-10-22T05:51:12.652Z,13.90
2022-10-22T05:53:41.231Z,15.70
2022-10-22T05:56:13.616Z,15.57
2022-10-22T05:58:40.303Z,15.07
2022-10-22T06:01:13.199Z,14.40
2022-10-22T06:03:40.338Z,14.90
2022-10-22T06:06:18.181Z,13.70
2022-10-22T06:08:49.685Z,15.10
2022-10-22T06:11:17.889Z,15.17
2022-10-22T06:13:45.500Z,15.60
2022-10-22T06:16:12.519Z,13.87
2022-10-22T06:18:39.150Z,14.13
2022-10-22T06:21:07.915Z,15.47
2022-10-22T06:23:34.961Z,15.93
2022-10-22T06:26:02.085Z,14.73
2022-10-22T06:28:28.921Z,14.80
2022-10-22T06:30:57.815Z,13.90
2022-10-22T06:33:25.036Z,15.67
2022-10-22T06:35:51.636Z,17.17
2022-10-22T06:38:18.652Z,17.27
2022-10-22T06:40:45.306Z,15.77
2022-10-22T06:43:13.507Z,15.47
2022-10-22T06:45:40.986Z,16.57
2022-10-22T06:48:07.652Z,18.10
2022-10-22T06:50:35.697Z,17.20
2022-10-22T06:53:02.389Z,15.53
2022-10-22T06:55:29.211Z,16.73
2022-10-22T06:57:55.896Z,16.93
2022-10-22T07:00:22.773Z,18.07
2022-10-22T07:02:56.432Z,16.70
2022-10-22T07:05:25.730Z,18.00
2022-10-22T07:07:52.353Z,17.00
2022-10-22T07:10:18.925Z,18.97
2022-10-22T07:12:45.574Z,16.60
2022-10-22T07:15:12.278Z,17.63
2022-10-22T07:20:10.979Z,18.47
2022-10-22T07:22:37.716Z,17.77
2022-10-22T07:25:07.322Z,18.33
2022-10-22T07:27:34.334Z,18.40
2022-10-22T07:30:01.470Z,18.07
2022-10-22T07:32:28.504Z,18.77
2022-10-22T07:34:55.144Z,18.83
2022-10-22T07:37:21.990Z,18.67
2022-10-22T07:39:49.153Z,19.33
2022-10-22T07:42:15.979Z,17.70
2022-10-22T07:44:42.579Z,17.17
2022-10-22T07:47:09.250Z,18.50
2022-10-22T07:49:35.877Z,17.20
2022-10-22T07:52:02.546Z,17.63
2022-10-22T07:54:29.174Z,18.47
2022-10-22T07:56:55.878Z,18.53
2022-10-22T07:59:22.630Z,16.83
2022-10-22T08:01:49.298Z,18.93
2022-10-22T08:04:15.948Z,16.93
2022-10-22T08:06:45.838Z,17.40
2022-10-22T08:09:14.007Z,18.57
2022-10-22T08:11:40.704Z,17.80
2022-10-22T08:14:07.373Z,18.30
2022-10-22T08:16:34.002Z,19.67
2022-10-22T08:19:00.624Z,19.83
2022-10-22T08:21:27.232Z,20.30
2022-10-22T08:23:53.838Z,18.00
2022-10-22T08:26:20.445Z,17.57
2022-10-22T08:28:47.114Z,19.73
2022-10-22T08:31:13.916Z,18.27
2022-10-22T08:33:40.954Z,16.63
2022-10-22T08:36:08.018Z,17.57
2022-10-22T08:38:35.268Z,17.00
2022-10-22T08:41:12.287Z,17.53
2022-10-22T08:44:14.693Z,15.90
2022-10-22T08:47:04.264Z,14.33
2022-10-22T08:49:38.481Z,14.80
2022-10-22T08:52:18.080Z,16.30
2022-10-22T08:54:49.149Z,16.23
2022-10-22T08:57:42.652Z,14.67
2022-10-22T09:00:24.372Z,13.40
2022-10-22T09:03:27.741Z,11.73
2022-10-22T09:06:20.805Z,11.33
2022-10-22T09:08:47.804Z,12.77
2022-10-22T09:11:21.427Z,10.87
2022-10-22T09:13:49.021Z,9.73
2022-10-22T09:16:18.107Z,9.40
2022-10-22T09:19:11.787Z,8.00
2022-10-22T09:21:57.174Z,8.73
2022-10-22T09:24:46.773Z,8.00
2022-10-22T09:27:23.679Z,7.10
2022-10-22T09:29:50.335Z,6.83
2022-10-22T09:32:17.558Z,5.83
2022-10-22T09:34:45.599Z,6.30
2022-10-22T09:37:12.403Z,6.00
2022-10-22T09:39:43.723Z,6.23
2022-10-22T09:42:14.764Z,5.83
2022-10-22T09:44:44.905Z,5.50
2022-10-22T09:47:42.891Z,5.50
2022-10-22T09:50:36.931Z,5.90
2022-10-22T09:53:18.887Z,5.03
2022-10-22T09:58:26.783Z,5.33
2022-10-22T10:00:59.185Z,5.67
2022-10-22T10:03:30.840Z,5.60
2022-10-22T10:06:04.744Z,5.00
2022-10-22T10:08:33.573Z,4.83
2022-10-22T10:11:06.026Z,5.40
2022-10-22T10:13:38.793Z,5.53
2022-10-22T10:16:42.464Z,5.40
2022-10-22T10:19:09.273Z,5.30
2022-10-22T10:22:07.965Z,5.47
2022-10-22T10:24:56.395Z,4.90
2022-10-22T10:27:36.911Z,4.70
2022-10-22T10:30:16.682Z,20.73
2022-10-22T10:33:03.177Z,4.83
2022-10-22T10:35:38.838Z,10.83
2022-10-22T10:38:19.148Z,16.40
2022-10-22T10:41:06.865Z,5.27
2022-10-22T10:44:17.285Z,7.30
2022-10-22T10:47:09.795Z,4.40
2022-10-22T10:49:36.994Z,12.17
2022-10-22T10:52:38.546Z,9.90
2022-10-22T10:55:30.438Z,8.67
2022-10-22T10:58:21.104Z,7.20
2022-10-22T11:00:55.612Z,6.27
2022-10-22T11:04:00.125Z,5.10
2022-10-22T11:06:29.564Z,4.20
2022-10-22T11:09:25.858Z,5.53
2022-10-22T11:12:02.563Z,7.10
2022-10-22T11:14:40.630Z,2.30
2022-10-22T11:17:18.156Z,3.60
2022-10-22T11:20:00.459Z,1.90
2022-10-22T11:22:34.693Z,3.10
2022-10-22T11:25:13.311Z,2.87
2022-10-22T11:27:52.420Z,2.73
2022-10-22T11:30:24.127Z,2.73
2022-10-22T11:32:57.430Z,2.63
2022-10-22T11:35:33.674Z,2.30
2022-10-22T11:38:02.685Z,2.30
2022-10-22T11:40:29.359Z,2.40
2022-10-22T11:43:07.294Z,2.20
2022-10-22T11:45:42.329Z,2.83
2022-10-22T11:48:11.725Z,2.50
2022-10-22T11:50:56.707Z,3.03
2022-10-22T11:53:33.393Z,2.17
2022-10-22T11:56:04.864Z,2.40
2022-10-22T11:58:39.205Z,2.37
2022-10-22T12:01:08.860Z,2.33
2022-10-22T12:03:36.603Z,2.70
2022-10-22T12:06:12.508Z,2.50
2022-10-22T12:08:57.371Z,2.53
2022-10-22T12:11:39.365Z,2.63
2022-10-22T12:14:29.775Z,2.97
2022-10-22T12:16:58.914Z,3.33
2022-10-22T12:19:30.475Z,2.60
2022-10-22T12:22:06.554Z,2.50
2022-10-22T12:24:41.178Z,3.43
2022-10-22T12:27:33.705Z,2.30
2022-10-22T12:30:02.466Z,2.30
2022-10-22T12:32:42.765Z,2.73
2022-10-22T12:35:17.547Z,3.30
2022-10-22T12:37:44.670Z,3.27
2022-10-22T12:40:23.272Z,3.40
2022-10-22T12:42:49.833Z,3.17
2022-10-22T12:45:16.626Z,3.50
2022-10-22T12:47:52.278Z,3.00
2022-10-22T12:50:23.217Z,3.33
2022-10-22T12:52:50.029Z,3.60
2022-10-22T12:55:25.799Z,3.17
2022-10-22T12:57:52.974Z,3.40
2022-10-22T13:00:32.245Z,3.03
2022-10-22T13:03:00.338Z,4.10
2022-10-22T13:05:30.759Z,3.23
2022-10-22T13:08:10.397Z,6.93
2022-10-22T13:10:40.429Z,3.60
2022-10-22T13:13:07.398Z,3.40
2022-10-22T13:15:39.302Z,3.50
2022-10-22T13:18:21.033Z,3.60
2022-10-22T13:20:57.089Z,3.17
2022-10-22T13:23:26.641Z,3.50
2022-10-22T13:26:17.764Z,3.53
2022-10-22T13:28:52.773Z,3.33
2022-10-22T13:31:23.726Z,3.17
2022-10-22T13:34:02.429Z,5.03
2022-10-22T13:36:32.552Z,4.03
2022-10-22T13:38:59.466Z,3.30
2022-10-22T13:41:32.200Z,2.80
2022-10-22T13:43:59.196Z,3.50
2022-10-22T13:46:27.196Z,3.33
2022-10-22T13:48:55.604Z,3.33
2022-10-22T13:51:25.164Z,3.50
2022-10-22T13:53:53.644Z,2.57
2022-10-22T13:56:21.720Z,2.37
2022-10-22T13:58:48.651Z,2.33
2022-10-22T14:01:23.725Z,2.60
2022-10-22T14:03:52.976Z,3.60
2022-10-22T14:06:21.995Z,3.13
2022-10-22T14:08:51.635Z,3.60
2022-10-22T14:11:18.380Z,3.50
2022-10-22T14:13:45.072Z,2.70
2022-10-22T14:16:20.489Z,3.20
2022-10-22T14:18:48.091Z,3.70
2022-10-22T14:21:16.538Z,2.57
2022-10-22T14:23:45.310Z,2.97
2022-10-22T14:26:33.221Z,3.10
2022-10-22T14:29:09.719Z,2.83
2022-10-22T14:34:15.878Z,2.93
2022-10-22T14:36:43.971Z,2.70
2022-10-22T14:39:11.573Z,2.80
2022-10-22T14:41:38.700Z,2.60
2022-10-22T14:44:05.442Z,2.40
2022-10-22T14:46:32.135Z,3.20
2022-10-22T14:48:58.758Z,2.67
2022-10-22T14:51:25.458Z,2.00
2022-10-22T14:53:52.076Z,2.83
2022-10-22T14:56:22.466Z,2.80
2022-10-22T14:58:49.666Z,2.17
2022-10-22T15:01:16.640Z,3.47
2022-10-22T15:03:43.235Z,2.70
2022-10-22T15:06:09.963Z,3.20
2022-10-22T15:08:36.694Z,2.13
2022-10-22T15:11:08.279Z,2.70
2022-10-22T15:13:35.152Z,2.67
2022-10-22T15:16:05.617Z,2.57
2022-10-22T15:18:32.451Z,3.00
2022-10-22T15:21:01.047Z,2.57
2022-10-22T15:23:28.714Z,2.37
2022-10-22T15:25:55.999Z,2.23
2022-10-22T15:28:23.300Z,2.93
2022-10-22T15:30:54.778Z,3.10
2022-10-22T15:33:21.401Z,2.70
2022-10-22T15:35:48.035Z,3.10
2022-10-22T15:38:14.641Z,2.57
2022-10-22T15:40:41.261Z,2.80
2022-10-22T15:43:07.998Z,3.00
2022-10-22T15:45:34.761Z,3.30
2022-10-22T15:48:01.366Z,2.87
2022-10-22T15:50:28.128Z,2.30
2022-10-22T15:52:55.680Z,2.60
2022-10-22T15:55:22.476Z,2.80
2022-10-22T15:57:54.705Z,3.30
2022-10-22T16:00:22.915Z,3.00
2022-10-22T16:02:49.888Z,3.10
2022-10-22T16:05:16.520Z,3.90
2022-10-22T16:07:43.946Z,3.10
2022-10-22T16:10:12.816Z,2.90
2022-10-22T16:12:41.177Z,3.13
2022-10-22T16:15:10.284Z,3.50
2022-10-22T16:17:36.910Z,3.40
2022-10-22T16:20:03.919Z,3.00
2022-10-22T16:22:30.545Z,3.60
2022-10-22T16:24:57.217Z,3.60
2022-10-22T16:27:23.842Z,3.53
2022-10-22T16:29:50.509Z,3.33
2022-10-22T16:32:17.806Z,3.40
2022-10-22T16:34:44.446Z,4.03
2022-10-22T16:37:11.124Z,4.10
2022-10-22T16:39:38.289Z,4.60
2022-10-22T16:42:04.963Z,4.73
2022-10-22T16:44:31.554Z,4.60
2022-10-22T16:46:58.154Z,4.90
2022-10-22T16:49:24.844Z,5.40
2022-10-22T16:51:51.442Z,4.10
2022-10-22T16:54:18.475Z,4.30
2022-10-22T16:56:45.066Z,4.50
2022-10-22T16:59:11.665Z,4.20
2022-10-22T17:01:41.291Z,5.20
2022-10-22T17:04:08.530Z,4.60
2022-10-22T17:06:35.276Z,5.67
2022-10-22T17:09:02.092Z,5.77
2022-10-22T17:11:34.481Z,5.80
2022-10-22T17:14:01.910Z,5.57
2022-10-22T17:16:28.612Z,4.90
2022-10-22T17:18:55.583Z,6.90
2022-10-22T17:21:22.870Z,4.60
2022-10-22T17:23:53.358Z,5.90
2022-10-22T17:26:22.650Z,4.83
2022-10-22T17:28:49.599Z,5.90
2022-10-22T17:31:19.670Z,6.00
2022-10-22T17:33:47.794Z,5.50
2022-10-22T17:36:14.609Z,6.07
2022-10-22T17:38:42.557Z,5.60
2022-10-22T17:41:14.849Z,5.67
2022-10-22T17:43:41.609Z,5.60
2022-10-22T17:46:16.486Z,8.00
2022-10-22T17:48:43.339Z,5.37
2022-10-22T17:51:12.025Z,5.63
2022-10-22T17:53:48.172Z,6.97
2022-10-22T17:56:17.460Z,6.67
2022-10-22T17:58:44.457Z,5.83
2022-10-22T18:01:40.187Z,6.27
2022-10-22T18:04:08.395Z,7.20
2022-10-22T18:06:35.537Z,6.87
2022-10-22T18:09:06.569Z,6.70
2022-10-22T18:11:34.397Z,7.00
2022-10-22T18:14:01.089Z,6.63
2022-10-22T18:16:27.906Z,6.30
2022-10-22T18:18:56.260Z,7.00
2022-10-22T18:21:25.244Z,6.63
2022-10-22T18:23:52.313Z,7.07
2022-10-22T18:26:21.574Z,6.63
2022-10-22T18:28:51.035Z,7.87
2022-10-22T18:31:21.022Z,6.57
2022-10-22T18:33:48.315Z,6.97
2022-10-22T18:36:20.490Z,6.10
2022-10-22T18:38:51.837Z,6.50
2022-10-22T18:41:19.127Z,5.20
2022-10-22T18:43:56.956Z,7.00
2022-10-22T18:46:24.164Z,6.00
2022-10-22T18:48:55.238Z,6.07
2022-10-22T18:51:22.566Z,6.43
2022-10-22T18:54:05.156Z,6.80
2022-10-22T18:56:32.528Z,5.87
2022-10-22T18:58:59.154Z,6.07
2022-10-22T19:01:29.278Z,6.13
2022-10-22T19:03:56.923Z,5.60
2022-10-22T19:06:34.472Z,6.40
2022-10-22T19:09:02.526Z,7.60
2022-10-22T19:11:29.216Z,6.90
2022-10-22T19:13:56.058Z,6.47
2022-10-22T19:16:23.900Z,7.37
2022-10-22T19:18:52.145Z,6.53
2022-10-22T19:21:19.052Z,6.13
2022-10-22T19:26:21.366Z,6.10
2022-10-22T19:28:47.968Z,6.13
2022-10-22T19:31:18.649Z,6.37
2022-10-22T19:33:45.287Z,6.73
2022-10-22T19:36:13.694Z,6.77
2022-10-22T19:38:43.480Z,6.97
2022-10-22T19:41:12.615Z,7.10
2022-10-22T19:43:40.427Z,6.77
2022-10-22T19:46:07.470Z,7.27
2022-10-22T19:48:35.545Z,7.60
2022-10-22T19:51:05.935Z,6.27
2022-10-22T19:53:33.616Z,6.93
2022-10-22T19:56:00.693Z,7.37
2022-10-22T19:58:28.205Z,6.80
2022-10-22T20:00:54.907Z,6.50
2022-10-22T20:03:21.913Z,7.23
2022-10-22T20:05:50.762Z,7.37
2022-10-22T20:08:17.377Z,6.87
2022-10-22T20:10:44.025Z,7.23
2022-10-22T20:13:10.617Z,7.60
2022-10-22T20:15:37.274Z,7.63
2022-10-22T20:18:04.060Z,6.87
2022-10-22T20:20:30.928Z,7.83
2022-10-22T20:22:57.613Z,8.10
2022-10-22T20:25:24.301Z,7.80
2022-10-22T20:27:50.998Z,7.20
2022-10-22T20:30:19.545Z,8.17
2022-10-22T20:32:46.265Z,8.17
2022-10-22T20:35:14.934Z,6.97
2022-10-22T20:37:41.619Z,6.60
2022-10-22T20:40:08.668Z,7.40
2022-10-22T20:42:35.455Z,7.60
2022-10-22T20:45:02.088Z,7.17
2022-10-22T20:47:39.213Z,7.60
2022-10-22T20:50:15.395Z,6.83
2022-10-22T20:52:42.065Z,7.30
2022-10-22T20:55:08.648Z,7.23
2022-10-22T20:57:35.980Z,7.70
2022-10-22T21:00:02.697Z,7.70
2022-10-22T21:02:29.569Z,8.10
2022-10-22T21:04:56.154Z,8.17
2022-10-22T21:07:22.812Z,7.87
2022-10-22T21:09:49.386Z,27.60
2022-10-22T21:12:16.038Z,10.40
2022-10-22T21:14:42.623Z,8.40
2022-10-22T21:17:09.332Z,9.13
2022-10-22T21:19:35.977Z,11.00
2022-10-22T21:22:02.578Z,10.20
2022-10-22T21:24:29.157Z,9.00
2022-10-22T21:26:56.020Z,8.40
2022-10-22T21:29:22.621Z,9.07
2022-10-22T21:31:49.289Z,8.33
2022-10-22T21:34:17.222Z,9.23
2022-10-22T21:36:44.730Z,10.20
2022-10-22T21:39:12.723Z,9.80
2022-10-22T21:41:39.503Z,9.37
2022-10-22T21:44:06.261Z,10.07
2022-10-22T21:46:32.920Z,9.00
2022-10-22T21:49:02.195Z,10.87
2022-10-22T21:51:31.268Z,9.47
2022-10-22T21:53:58.237Z,9.20
2022-10-22T21:56:28.600Z,9.07
2022-10-22T21:58:55.332Z,9.90
2022-10-22T22:01:22.500Z,8.30
2022-10-22T22:03:50.112Z,8.90
2022-10-22T22:06:21.271Z,9.37
2022-10-22T22:08:49.100Z,9.30
2022-10-22T22:11:18.793Z,8.60
2022-10-22T22:13:45.563Z,9.90
2022-10-22T22:16:20.307Z,9.40
2022-10-22T22:18:49.109Z,10.10
2022-10-22T22:21:18.516Z,8.40
2022-10-22T22:23:47.317Z,12.83
2022-10-22T22:26:16.600Z,11.63
2022-10-22T22:28:43.299Z,9.87
2022-10-22T22:31:18.399Z,11.20
2022-10-22T22:33:45.578Z,11.83
2022-10-22T22:36:12.368Z,12.07
2022-10-22T22:38:39.387Z,12.10
2022-10-22T22:41:07.460Z,12.30
2022-10-22T22:43:34.746Z,14.53
2022-10-22T22:46:03.276Z,11.40
2022-10-22T22:48:30.398Z,12.10
2022-10-22T22:50:57.092Z,12.00
2022-10-22T22:53:23.794Z,11.83
2022-10-22T22:55:50.477Z,12.50
2022-10-22T22:58:17.259Z,11.70
2022-10-22T23:00:43.890Z,14.20
2022-10-22T23:03:10.550Z,11.37
2022-10-22T23:05:37.805Z,12.07
2022-10-22T23:08:04.643Z,10.90
2022-10-22T23:10:31.276Z,11.10
2022-10-22T23:12:57.864Z,10.90
2022-10-22T23:15:24.481Z,11.80
2022-10-22T23:17:51.127Z,12.90
2022-10-22T23:20:17.789Z,14.33
2022-10-22T23:22:44.762Z,12.70
2022-10-22T23:25:11.633Z,12.00
2022-10-22T23:27:38.353Z,12.53
2022-10-22T23:30:05.399Z,12.17
2022-10-22T23:32:32.007Z,11.77
2022-10-22T23:34:58.682Z,12.23
2022-10-22T23:37:25.302Z,11.93
2022-10-22T23:39:51.892Z,11.97
2022-10-22T23:42:18.638Z,13.00
2022-10-22T23:44:45.233Z,12.30
2022-10-22T23:47:11.833Z,11.20
2022-10-22T23:49:38.479Z,12.03
2022-10-22T23:52:05.058Z,11.90
2022-10-22T23:54:31.689Z,11.77
2022-10-22T23:56:58.262Z,11.60
2022-10-22T23:59:24.872Z,13.50
